sensor_id;sensor_type;location;lat;lon;timestamp;P1;durP1;ratioP1;P2;durP2;ratioP2
28762;SDS011;15918;51.270;6.522;2024-02-23T00:01:41;1.13;;;0.60;;
28762;SDS011;15918;51.270;6.522;2024-02-23T00:04:06;1.10;;;0.38;;
28762;SDS011;15918;51.270;6.522;2024-02-23T00:06:33;0.60;;;0.60;;
28762;SDS011;15918;51.270;6.522;2024-02-23T00:08:59;1.00;;;0.60;;
28762;SDS011;15918;51.270;6.522;2024-02-23T00:11:24;0.40;;;0.40;;
28762;SDS011;15918;51.270;6.522;2024-02-23T00:13:50;1.33;;;0.60;;
28762;SDS011;15918;51.270;6.522;2024-02-23T00:16:16;0.73;;;0.70;;
28762;SDS011;15918;51.270;6.522;2024-02-23T00:18:41;1.67;;;0.80;;
28762;SDS011;15918;51.270;6.522;2024-02-23T00:21:07;1.50;;;0.77;;
28762;SDS011;15918;51.270;6.522;2024-02-23T00:23:32;1.13;;;0.90;;
28762;SDS011;15918;51.270;6.522;2024-02-23T00:25:58;1.98;;;0.80;;
28762;SDS011;15918;51.270;6.522;2024-02-23T00:28:24;0.80;;;0.80;;
28762;SDS011;15918;51.270;6.522;2024-02-23T00:30:49;0.77;;;0.60;;
28762;SDS011;15918;51.270;6.522;2024-02-23T00:33:15;1.55;;;0.98;;
28762;SDS011;15918;51.270;6.522;2024-02-23T00:35:40;3.15;;;0.90;;
28762;SDS011;15918;51.270;6.522;2024-02-23T00:38:06;3.65;;;1.00;;
28762;SDS011;15918;51.270;6.522;2024-02-23T00:40:32;2.53;;;0.90;;
28762;SDS011;15918;51.270;6.522;2024-02-23T00:42:58;2.42;;;0.80;;
28762;SDS011;15918;51.270;6.522;2024-02-23T00:45:25;2.35;;;0.90;;
28762;SDS011;15918;51.270;6.522;2024-02-23T00:47:51;2.03;;;1.00;;
28762;SDS011;15918;51.270;6.522;2024-02-23T00:50:16;0.85;;;0.73;;
28762;SDS011;15918;51.270;6.522;2024-02-23T00:52:42;3.65;;;1.40;;
28762;SDS011;15918;51.270;6.522;2024-02-23T00:55:07;2.58;;;0.85;;
28762;SDS011;15918;51.270;6.522;2024-02-23T00:57:34;1.95;;;0.95;;
28762;SDS011;15918;51.270;6.522;2024-02-23T01:00:00;2.42;;;0.88;;
28762;SDS011;15918;51.270;6.522;2024-02-23T01:02:27;3.40;;;0.90;;
28762;SDS011;15918;51.270;6.522;2024-02-23T01:04:54;1.23;;;0.80;;
28762;SDS011;15918;51.270;6.522;2024-02-23T01:07:22;1.70;;;0.80;;
28762;SDS011;15918;51.270;6.522;2024-02-23T01:09:48;2.17;;;1.10;;
28762;SDS011;15918;51.270;6.522;2024-02-23T01:12:13;1.67;;;0.98;;
28762;SDS011;15918;51.270;6.522;2024-02-23T01:14:39;3.45;;;1.15;;
28762;SDS011;15918;51.270;6.522;2024-02-23T01:17:05;1.65;;;1.10;;
28762;SDS011;15918;51.270;6.522;2024-02-23T01:19:30;3.80;;;1.02;;
28762;SDS011;15918;51.270;6.522;2024-02-23T01:21:56;2.90;;;1.25;;
28762;SDS011;15918;51.270;6.522;2024-02-23T01:24:25;1.88;;;1.00;;
28762;SDS011;15918;51.270;6.522;2024-02-23T01:26:52;1.92;;;1.00;;
28762;SDS011;15918;51.270;6.522;2024-02-23T01:29:19;1.92;;;1.17;;
28762;SDS011;15918;51.270;6.522;2024-02-23T01:31:45;3.78;;;1.23;;
28762;SDS011;15918;51.270;6.522;2024-02-23T01:34:11;2.45;;;0.93;;
28762;SDS011;15918;51.270;6.522;2024-02-23T01:36:36;3.22;;;1.20;;
28762;SDS011;15918;51.270;6.522;2024-02-23T01:39:04;3.30;;;1.23;;
28762;SDS011;15918;51.270;6.522;2024-02-23T01:41:29;6.18;;;1.42;;
28762;SDS011;15918;51.270;6.522;2024-02-23T01:43:55;5.43;;;1.30;;
28762;SDS011;15918;51.270;6.522;2024-02-23T01:46:21;3.83;;;1.20;;
28762;SDS011;15918;51.270;6.522;2024-02-23T01:48:47;5.40;;;1.75;;
28762;SDS011;15918;51.270;6.522;2024-02-23T01:51:12;6.03;;;2.08;;
28762;SDS011;15918;51.270;6.522;2024-02-23T01:53:38;4.53;;;1.30;;
28762;SDS011;15918;51.270;6.522;2024-02-23T01:56:04;4.00;;;1.45;;
28762;SDS011;15918;51.270;6.522;2024-02-23T01:58:31;6.85;;;1.52;;
28762;SDS011;15918;51.270;6.522;2024-02-23T02:01:00;3.72;;;1.40;;
28762;SDS011;15918;51.270;6.522;2024-02-23T02:06:21;2.40;;;1.40;;
28762;SDS011;15918;51.270;6.522;2024-02-23T02:08:47;5.18;;;1.33;;
28762;SDS011;15918;51.270;6.522;2024-02-23T02:11:12;4.32;;;1.60;;
28762;SDS011;15918;51.270;6.522;2024-02-23T02:13:38;7.07;;;1.90;;
28762;SDS011;15918;51.270;6.522;2024-02-23T02:16:03;4.18;;;1.70;;
28762;SDS011;15918;51.270;6.522;2024-02-23T02:18:29;6.22;;;1.92;;
28762;SDS011;15918;51.270;6.522;2024-02-23T02:20:55;6.45;;;1.50;;
28762;SDS011;15918;51.270;6.522;2024-02-23T02:23:24;6.78;;;1.85;;
28762;SDS011;15918;51.270;6.522;2024-02-23T02:25:54;5.50;;;1.60;;
28762;SDS011;15918;51.270;6.522;2024-02-23T02:28:20;7.28;;;1.63;;
28762;SDS011;15918;51.270;6.522;2024-02-23T02:30:45;4.53;;;1.52;;
28762;SDS011;15918;51.270;6.522;2024-02-23T02:33:11;5.95;;;1.23;;
28762;SDS011;15918;51.270;6.522;2024-02-23T02:35:37;4.88;;;1.60;;
28762;SDS011;15918;51.270;6.522;2024-02-23T02:38:02;5.55;;;1.70;;
28762;SDS011;15918;51.270;6.522;2024-02-23T02:40:28;6.55;;;1.85;;
28762;SDS011;15918;51.270;6.522;2024-02-23T02:42:53;5.45;;;1.30;;
28762;SDS011;15918;51.270;6.522;2024-02-23T02:45:19;6.80;;;1.42;;
28762;SDS011;15918;51.270;6.522;2024-02-23T02:47:44;5.15;;;1.30;;
28762;SDS011;15918;51.270;6.522;2024-02-23T02:50:10;5.63;;;1.55;;
28762;SDS011;15918;51.270;6.522;2024-02-23T02:52:35;4.90;;;1.73;;
28762;SDS011;15918;51.270;6.522;2024-02-23T02:55:02;6.63;;;1.80;;
28762;SDS011;15918;51.270;6.522;2024-02-23T02:57:27;4.45;;;1.55;;
28762;SDS011;15918;51.270;6.522;2024-02-23T02:59:54;4.82;;;1.45;;
28762;SDS011;15918;51.270;6.522;2024-02-23T03:02:20;5.60;;;1.40;;
28762;SDS011;15918;51.270;6.522;2024-02-23T03:04:46;3.13;;;1.42;;
28762;SDS011;15918;51.270;6.522;2024-02-23T03:07:16;4.55;;;1.40;;
28762;SDS011;15918;51.270;6.522;2024-02-23T03:09:42;5.15;;;2.15;;
28762;SDS011;15918;51.270;6.522;2024-02-23T03:12:08;5.00;;;1.50;;
28762;SDS011;15918;51.270;6.522;2024-02-23T03:14:33;5.93;;;1.50;;
28762;SDS011;15918;51.270;6.522;2024-02-23T03:16:59;4.13;;;1.60;;
28762;SDS011;15918;51.270;6.522;2024-02-23T03:19:25;7.40;;;2.10;;
28762;SDS011;15918;51.270;6.522;2024-02-23T03:21:51;6.90;;;1.75;;
28762;SDS011;15918;51.270;6.522;2024-02-23T03:24:17;7.45;;;1.60;;
28762;SDS011;15918;51.270;6.522;2024-02-23T03:26:42;8.02;;;2.05;;
28762;SDS011;15918;51.270;6.522;2024-02-23T03:29:09;6.20;;;1.75;;
28762;SDS011;15918;51.270;6.522;2024-02-23T03:31:34;4.95;;;1.15;;
28762;SDS011;15918;51.270;6.522;2024-02-23T03:34:00;7.03;;;1.85;;
28762;SDS011;15918;51.270;6.522;2024-02-23T03:36:26;4.18;;;1.40;;
28762;SDS011;15918;51.270;6.522;2024-02-23T03:38:52;2.72;;;1.30;;
28762;SDS011;15918;51.270;6.522;2024-02-23T03:41:18;4.63;;;1.50;;
28762;SDS011;15918;51.270;6.522;2024-02-23T03:43:43;6.28;;;1.60;;
28762;SDS011;15918;51.270;6.522;2024-02-23T03:46:09;5.00;;;1.30;;
28762;SDS011;15918;51.270;6.522;2024-02-23T03:48:36;4.97;;;1.33;;
28762;SDS011;15918;51.270;6.522;2024-02-23T03:51:03;5.07;;;1.50;;
28762;SDS011;15918;51.270;6.522;2024-02-23T03:53:30;4.45;;;1.40;;
28762;SDS011;15918;51.270;6.522;2024-02-23T03:55:56;5.05;;;1.05;;
28762;SDS011;15918;51.270;6.522;2024-02-23T03:58:22;6.80;;;1.83;;
28762;SDS011;15918;51.270;6.522;2024-02-23T04:00:48;4.72;;;1.55;;
28762;SDS011;15918;51.270;6.522;2024-02-23T04:03:13;5.78;;;1.88;;
28762;SDS011;15918;51.270;6.522;2024-02-23T04:05:39;4.72;;;1.67;;
28762;SDS011;15918;51.270;6.522;2024-02-23T04:08:05;8.35;;;1.85;;
28762;SDS011;15918;51.270;6.522;2024-02-23T04:10:31;5.00;;;1.98;;
28762;SDS011;15918;51.270;6.522;2024-02-23T04:12:57;6.93;;;1.60;;
28762;SDS011;15918;51.270;6.522;2024-02-23T04:15:23;6.72;;;1.92;;
28762;SDS011;15918;51.270;6.522;2024-02-23T04:17:48;8.00;;;1.80;;
28762;SDS011;15918;51.270;6.522;2024-02-23T04:20:14;5.85;;;1.77;;
28762;SDS011;15918;51.270;6.522;2024-02-23T04:22:40;8.70;;;2.10;;
28762;SDS011;15918;51.270;6.522;2024-02-23T04:25:05;5.00;;;1.80;;
28762;SDS011;15918;51.270;6.522;2024-02-23T04:27:31;6.57;;;1.95;;
28762;SDS011;15918;51.270;6.522;2024-02-23T04:29:57;6.18;;;1.80;;
28762;SDS011;15918;51.270;6.522;2024-02-23T04:32:23;6.57;;;2.00;;
28762;SDS011;15918;51.270;6.522;2024-02-23T04:34:48;4.60;;;2.10;;
28762;SDS011;15918;51.270;6.522;2024-02-23T04:37:14;6.88;;;2.20;;
28762;SDS011;15918;51.270;6.522;2024-02-23T04:39:40;6.85;;;2.28;;
28762;SDS011;15918;51.270;6.522;2024-02-23T04:42:07;10.38;;;2.17;;
28762;SDS011;15918;51.270;6.522;2024-02-23T04:44:33;5.65;;;2.20;;
28762;SDS011;15918;51.270;6.522;2024-02-23T04:46:59;8.75;;;1.90;;
28762;SDS011;15918;51.270;6.522;2024-02-23T04:49:25;6.07;;;1.80;;
28762;SDS011;15918;51.270;6.522;2024-02-23T04:51:51;5.68;;;1.98;;
28762;SDS011;15918;51.270;6.522;2024-02-23T04:54:16;7.20;;;2.05;;
28762;SDS011;15918;51.270;6.522;2024-02-23T04:56:42;5.38;;;2.17;;
28762;SDS011;15918;51.270;6.522;2024-02-23T04:59:07;8.18;;;2.22;;
28762;SDS011;15918;51.270;6.522;2024-02-23T05:01:36;9.73;;;2.40;;
28762;SDS011;15918;51.270;6.522;2024-02-23T05:04:02;7.07;;;2.15;;
28762;SDS011;15918;51.270;6.522;2024-02-23T05:06:29;5.72;;;2.03;;
28762;SDS011;15918;51.270;6.522;2024-02-23T05:08:55;7.18;;;2.20;;
28762;SDS011;15918;51.270;6.522;2024-02-23T05:11:20;8.90;;;2.47;;
28762;SDS011;15918;51.270;6.522;2024-02-23T05:13:46;4.43;;;2.13;;
28762;SDS011;15918;51.270;6.522;2024-02-23T05:16:13;7.40;;;2.05;;
28762;SDS011;15918;51.270;6.522;2024-02-23T05:18:39;9.32;;;2.47;;
28762;SDS011;15918;51.270;6.522;2024-02-23T05:21:06;8.27;;;2.03;;
28762;SDS011;15918;51.270;6.522;2024-02-23T05:23:32;6.57;;;2.00;;
28762;SDS011;15918;51.270;6.522;2024-02-23T05:25:58;8.80;;;2.72;;
28762;SDS011;15918;51.270;6.522;2024-02-23T05:28:23;9.50;;;2.63;;
28762;SDS011;15918;51.270;6.522;2024-02-23T05:30:49;7.05;;;2.28;;
28762;SDS011;15918;51.270;6.522;2024-02-23T05:33:14;7.85;;;1.80;;
28762;SDS011;15918;51.270;6.522;2024-02-23T05:35:40;7.85;;;2.17;;
28762;SDS011;15918;51.270;6.522;2024-02-23T05:38:05;8.38;;;2.53;;
28762;SDS011;15918;51.270;6.522;2024-02-23T05:40:31;5.40;;;1.95;;
28762;SDS011;15918;51.270;6.522;2024-02-23T05:43:01;8.27;;;2.38;;
28762;SDS011;15918;51.270;6.522;2024-02-23T05:45:26;8.52;;;2.65;;
28762;SDS011;15918;51.270;6.522;2024-02-23T05:47:52;5.38;;;2.17;;
28762;SDS011;15918;51.270;6.522;2024-02-23T05:50:17;9.23;;;2.72;;
28762;SDS011;15918;51.270;6.522;2024-02-23T05:52:43;8.98;;;2.33;;
28762;SDS011;15918;51.270;6.522;2024-02-23T05:55:08;9.02;;;2.75;;
28762;SDS011;15918;51.270;6.522;2024-02-23T05:57:34;8.20;;;2.60;;
28762;SDS011;15918;51.270;6.522;2024-02-23T06:00:00;6.07;;;2.08;;
28762;SDS011;15918;51.270;6.522;2024-02-23T06:02:25;8.07;;;2.40;;
28762;SDS011;15918;51.270;6.522;2024-02-23T06:04:51;10.77;;;2.50;;
28762;SDS011;15918;51.270;6.522;2024-02-23T06:07:17;11.50;;;3.03;;
28762;SDS011;15918;51.270;6.522;2024-02-23T06:09:43;6.47;;;2.53;;
28762;SDS011;15918;51.270;6.522;2024-02-23T06:12:08;7.68;;;2.22;;
28762;SDS011;15918;51.270;6.522;2024-02-23T06:14:35;7.40;;;2.45;;
28762;SDS011;15918;51.270;6.522;2024-02-23T06:17:01;5.25;;;2.25;;
28762;SDS011;15918;51.270;6.522;2024-02-23T06:19:27;8.52;;;2.20;;
28762;SDS011;15918;51.270;6.522;2024-02-23T06:21:53;6.82;;;2.15;;
28762;SDS011;15918;51.270;6.522;2024-02-23T06:24:19;6.88;;;1.98;;
28762;SDS011;15918;51.270;6.522;2024-02-23T06:26:44;7.25;;;2.28;;
28762;SDS011;15918;51.270;6.522;2024-02-23T06:29:11;8.30;;;2.75;;
28762;SDS011;15918;51.270;6.522;2024-02-23T06:31:38;6.90;;;1.98;;
28762;SDS011;15918;51.270;6.522;2024-02-23T06:34:07;9.15;;;2.38;;
28762;SDS011;15918;51.270;6.522;2024-02-23T06:36:33;8.05;;;2.22;;
28762;SDS011;15918;51.270;6.522;2024-02-23T06:38:58;6.97;;;2.35;;
28762;SDS011;15918;51.270;6.522;2024-02-23T06:41:24;9.10;;;2.35;;
28762;SDS011;15918;51.270;6.522;2024-02-23T06:43:50;4.93;;;2.08;;
28762;SDS011;15918;51.270;6.522;2024-02-23T06:46:18;8.55;;;2.42;;
28762;SDS011;15918;51.270;6.522;2024-02-23T06:48:45;8.93;;;2.50;;
28762;SDS011;15918;51.270;6.522;2024-02-23T06:51:11;9.77;;;2.58;;
28762;SDS011;15918;51.270;6.522;2024-02-23T06:53:37;7.40;;;2.53;;
28762;SDS011;15918;51.270;6.522;2024-02-23T06:56:03;9.43;;;2.28;;
28762;SDS011;15918;51.270;6.522;2024-02-23T06:58:28;7.97;;;2.35;;
28762;SDS011;15918;51.270;6.522;2024-02-23T07:00:54;4.93;;;1.90;;
28762;SDS011;15918;51.270;6.522;2024-02-23T07:03:20;7.95;;;2.55;;
28762;SDS011;15918;51.270;6.522;2024-02-23T07:05:45;6.93;;;2.00;;
28762;SDS011;15918;51.270;6.522;2024-02-23T07:08:12;8.55;;;2.42;;
28762;SDS011;15918;51.270;6.522;2024-02-23T07:10:38;9.63;;;2.15;;
28762;SDS011;15918;51.270;6.522;2024-02-23T07:13:05;4.05;;;1.80;;
28762;SDS011;15918;51.270;6.522;2024-02-23T07:15:32;8.13;;;2.22;;
28762;SDS011;15918;51.270;6.522;2024-02-23T07:17:58;5.03;;;1.98;;
28762;SDS011;15918;51.270;6.522;2024-02-23T07:20:24;7.78;;;2.22;;
28762;SDS011;15918;51.270;6.522;2024-02-23T07:22:49;5.50;;;1.77;;
28762;SDS011;15918;51.270;6.522;2024-02-23T07:25:15;8.45;;;2.03;;
28762;SDS011;15918;51.270;6.522;2024-02-23T07:27:41;6.53;;;2.15;;
28762;SDS011;15918;51.270;6.522;2024-02-23T07:30:07;8.40;;;2.20;;
28762;SDS011;15918;51.270;6.522;2024-02-23T07:32:34;5.32;;;2.03;;
28762;SDS011;15918;51.270;6.522;2024-02-23T07:35:00;5.30;;;2.40;;
28762;SDS011;15918;51.270;6.522;2024-02-23T07:37:28;6.47;;;2.25;;
28762;SDS011;15918;51.270;6.522;2024-02-23T07:39:54;7.28;;;2.25;;
28762;SDS011;15918;51.270;6.522;2024-02-23T07:42:20;6.10;;;2.13;;
28762;SDS011;15918;51.270;6.522;2024-02-23T07:44:45;6.13;;;1.70;;
28762;SDS011;15918;51.270;6.522;2024-02-23T07:47:11;6.28;;;1.90;;
28762;SDS011;15918;51.270;6.522;2024-02-23T07:49:37;7.80;;;2.25;;
28762;SDS011;15918;51.270;6.522;2024-02-23T07:52:05;7.97;;;2.17;;
28762;SDS011;15918;51.270;6.522;2024-02-23T07:54:32;7.88;;;2.13;;
28762;SDS011;15918;51.270;6.522;2024-02-23T07:56:57;6.25;;;1.73;;
28762;SDS011;15918;51.270;6.522;2024-02-23T07:59:23;7.38;;;2.25;;
28762;SDS011;15918;51.270;6.522;2024-02-23T08:01:49;5.43;;;2.20;;
28762;SDS011;15918;51.270;6.522;2024-02-23T08:04:15;10.77;;;2.45;;
28762;SDS011;15918;51.270;6.522;2024-02-23T08:06:41;7.35;;;2.00;;
28762;SDS011;15918;51.270;6.522;2024-02-23T08:09:07;6.88;;;1.85;;
28762;SDS011;15918;51.270;6.522;2024-02-23T08:11:33;5.95;;;2.20;;
28762;SDS011;15918;51.270;6.522;2024-02-23T08:13:59;5.93;;;1.80;;
28762;SDS011;15918;51.270;6.522;2024-02-23T08:16:24;5.57;;;2.25;;
28762;SDS011;15918;51.270;6.522;2024-02-23T08:18:50;7.32;;;2.10;;
28762;SDS011;15918;51.270;6.522;2024-02-23T08:21:16;8.75;;;2.22;;
28762;SDS011;15918;51.270;6.522;2024-02-23T08:23:41;7.82;;;2.20;;
28762;SDS011;15918;51.270;6.522;2024-02-23T08:26:07;6.43;;;1.98;;
28762;SDS011;15918;51.270;6.522;2024-02-23T08:28:32;7.00;;;2.47;;
28762;SDS011;15918;51.270;6.522;2024-02-23T08:30:58;8.93;;;1.90;;
28762;SDS011;15918;51.270;6.522;2024-02-23T08:33:23;6.55;;;1.90;;
28762;SDS011;15918;51.270;6.522;2024-02-23T08:35:49;4.68;;;1.80;;
28762;SDS011;15918;51.270;6.522;2024-02-23T08:38:15;6.38;;;2.13;;
28762;SDS011;15918;51.270;6.522;2024-02-23T08:40:40;5.93;;;2.10;;
28762;SDS011;15918;51.270;6.522;2024-02-23T08:43:07;6.53;;;2.30;;
28762;SDS011;15918;51.270;6.522;2024-02-23T08:45:32;4.82;;;2.15;;
28762;SDS011;15918;51.270;6.522;2024-02-23T08:47:58;4.80;;;1.98;;
28762;SDS011;15918;51.270;6.522;2024-02-23T08:50:23;6.50;;;1.90;;
28762;SDS011;15918;51.270;6.522;2024-02-23T08:52:49;5.43;;;1.67;;
28762;SDS011;15918;51.270;6.522;2024-02-23T08:55:15;5.13;;;2.00;;
28762;SDS011;15918;51.270;6.522;2024-02-23T08:57:40;5.18;;;2.28;;
28762;SDS011;15918;51.270;6.522;2024-02-23T09:00:06;5.15;;;2.08;;
28762;SDS011;15918;51.270;6.522;2024-02-23T09:02:33;5.18;;;1.75;;
28762;SDS011;15918;51.270;6.522;2024-02-23T09:05:00;6.75;;;2.03;;
28762;SDS011;15918;51.270;6.522;2024-02-23T09:07:26;5.60;;;2.10;;
28762;SDS011;15918;51.270;6.522;2024-02-23T09:09:51;6.28;;;2.20;;
28762;SDS011;15918;51.270;6.522;2024-02-23T09:12:18;7.40;;;2.28;;
28762;SDS011;15918;51.270;6.522;2024-02-23T09:14:43;11.55;;;2.65;;
28762;SDS011;15918;51.270;6.522;2024-02-23T09:17:09;6.43;;;2.65;;
28762;SDS011;15918;51.270;6.522;2024-02-23T09:19:36;5.30;;;2.03;;
28762;SDS011;15918;51.270;6.522;2024-02-23T09:22:02;6.03;;;2.13;;
28762;SDS011;15918;51.270;6.522;2024-02-23T09:24:28;6.00;;;1.92;;
28762;SDS011;15918;51.270;6.522;2024-02-23T09:26:53;8.38;;;2.25;;
28762;SDS011;15918;51.270;6.522;2024-02-23T09:29:19;7.93;;;2.33;;
28762;SDS011;15918;51.270;6.522;2024-02-23T09:31:46;8.55;;;2.00;;
28762;SDS011;15918;51.270;6.522;2024-02-23T09:34:12;7.10;;;2.20;;
28762;SDS011;15918;51.270;6.522;2024-02-23T09:36:37;5.93;;;1.98;;
28762;SDS011;15918;51.270;6.522;2024-02-23T09:39:03;8.43;;;2.60;;
28762;SDS011;15918;51.270;6.522;2024-02-23T09:41:29;6.85;;;2.10;;
28762;SDS011;15918;51.270;6.522;2024-02-23T09:43:58;7.35;;;1.95;;
28762;SDS011;15918;51.270;6.522;2024-02-23T09:46:24;4.47;;;2.22;;
28762;SDS011;15918;51.270;6.522;2024-02-23T09:48:51;9.00;;;2.08;;
28762;SDS011;15918;51.270;6.522;2024-02-23T09:51:17;9.32;;;2.72;;
28762;SDS011;15918;51.270;6.522;2024-02-23T09:53:45;6.00;;;1.98;;
28762;SDS011;15918;51.270;6.522;2024-02-23T09:56:12;10.23;;;2.90;;
28762;SDS011;15918;51.270;6.522;2024-02-23T09:58:42;3.63;;;1.55;;
28762;SDS011;15918;51.270;6.522;2024-02-23T10:01:08;5.68;;;2.17;;
28762;SDS011;15918;51.270;6.522;2024-02-23T10:03:36;6.05;;;2.00;;
28762;SDS011;15918;51.270;6.522;2024-02-23T10:06:03;6.22;;;2.22;;
28762;SDS011;15918;51.270;6.522;2024-02-23T10:08:30;6.82;;;2.00;;
28762;SDS011;15918;51.270;6.522;2024-02-23T10:10:55;6.30;;;2.00;;
28762;SDS011;15918;51.270;6.522;2024-02-23T10:13:22;5.15;;;1.77;;
28762;SDS011;15918;51.270;6.522;2024-02-23T10:15:51;8.43;;;2.28;;
28762;SDS011;15918;51.270;6.522;2024-02-23T10:18:18;5.10;;;2.20;;
28762;SDS011;15918;51.270;6.522;2024-02-23T10:20:44;7.15;;;1.80;;
28762;SDS011;15918;51.270;6.522;2024-02-23T10:23:10;4.88;;;1.80;;
28762;SDS011;15918;51.270;6.522;2024-02-23T10:25:36;5.70;;;1.85;;
28762;SDS011;15918;51.270;6.522;2024-02-23T10:28:02;6.10;;;2.53;;
28762;SDS011;15918;51.270;6.522;2024-02-23T10:30:31;5.32;;;1.92;;
28762;SDS011;15918;51.270;6.522;2024-02-23T10:32:58;10.10;;;2.33;;
28762;SDS011;15918;51.270;6.522;2024-02-23T10:35:24;6.03;;;2.03;;
28762;SDS011;15918;51.270;6.522;2024-02-23T10:37:52;4.80;;;2.10;;
28762;SDS011;15918;51.270;6.522;2024-02-23T10:40:19;8.85;;;2.83;;
28762;SDS011;15918;51.270;6.522;2024-02-23T10:42:47;5.53;;;2.22;;
28762;SDS011;15918;51.270;6.522;2024-02-23T10:45:16;8.85;;;2.40;;
28762;SDS011;15918;51.270;6.522;2024-02-23T10:47:43;7.80;;;2.22;;
28762;SDS011;15918;51.270;6.522;2024-02-23T10:50:09;6.28;;;2.28;;
28762;SDS011;15918;51.270;6.522;2024-02-23T10:52:40;7.07;;;2.50;;
28762;SDS011;15918;51.270;6.522;2024-02-23T10:55:09;5.07;;;1.77;;
28762;SDS011;15918;51.270;6.522;2024-02-23T10:57:35;8.05;;;2.35;;
28762;SDS011;15918;51.270;6.522;2024-02-23T11:00:01;8.45;;;2.70;;
28762;SDS011;15918;51.270;6.522;2024-02-23T11:02:31;6.28;;;2.38;;
28762;SDS011;15918;51.270;6.522;2024-02-23T11:05:00;5.78;;;1.98;;
28762;SDS011;15918;51.270;6.522;2024-02-23T11:07:29;6.40;;;2.42;;
28762;SDS011;15918;51.270;6.522;2024-02-23T11:09:58;10.75;;;2.40;;
28762;SDS011;15918;51.270;6.522;2024-02-23T11:12:25;6.45;;;2.20;;
28762;SDS011;15918;51.270;6.522;2024-02-23T11:14:51;6.68;;;2.53;;
28762;SDS011;15918;51.270;6.522;2024-02-23T11:17:21;4.80;;;1.77;;
28762;SDS011;15918;51.270;6.522;2024-02-23T11:19:50;6.30;;;1.90;;
28762;SDS011;15918;51.270;6.522;2024-02-23T11:22:23;8.02;;;2.22;;
28762;SDS011;15918;51.270;6.522;2024-02-23T11:24:50;6.05;;;1.98;;
28762;SDS011;15918;51.270;6.522;2024-02-23T11:27:16;7.10;;;2.17;;
28762;SDS011;15918;51.270;6.522;2024-02-23T11:29:43;6.30;;;2.03;;
28762;SDS011;15918;51.270;6.522;2024-02-23T11:32:14;7.68;;;2.30;;
28762;SDS011;15918;51.270;6.522;2024-02-23T11:34:40;5.40;;;2.00;;
28762;SDS011;15918;51.270;6.522;2024-02-23T11:37:09;11.25;;;2.67;;
28762;SDS011;15918;51.270;6.522;2024-02-23T11:39:37;6.93;;;2.35;;
28762;SDS011;15918;51.270;6.522;2024-02-23T11:42:04;6.78;;;2.58;;
28762;SDS011;15918;51.270;6.522;2024-02-23T11:44:31;5.85;;;2.75;;
28762;SDS011;15918;51.270;6.522;2024-02-23T11:46:57;7.53;;;2.13;;
28762;SDS011;15918;51.270;6.522;2024-02-23T11:49:28;7.20;;;2.47;;
28762;SDS011;15918;51.270;6.522;2024-02-23T11:51:54;6.65;;;2.55;;
28762;SDS011;15918;51.270;6.522;2024-02-23T11:54:21;7.38;;;2.45;;
28762;SDS011;15918;51.270;6.522;2024-02-23T11:56:47;5.43;;;2.03;;
28762;SDS011;15918;51.270;6.522;2024-02-23T11:59:14;5.65;;;1.85;;
28762;SDS011;15918;51.270;6.522;2024-02-23T12:01:40;7.15;;;2.10;;
28762;SDS011;15918;51.270;6.522;2024-02-23T12:04:06;5.72;;;2.17;;
28762;SDS011;15918;51.270;6.522;2024-02-23T12:06:33;9.90;;;2.10;;
28762;SDS011;15918;51.270;6.522;2024-02-23T12:09:00;5.72;;;2.17;;
28762;SDS011;15918;51.270;6.522;2024-02-23T12:11:26;12.05;;;2.63;;
28762;SDS011;15918;51.270;6.522;2024-02-23T12:13:52;5.68;;;2.20;;
28762;SDS011;15918;51.270;6.522;2024-02-23T12:16:18;5.82;;;2.55;;
28762;SDS011;15918;51.270;6.522;2024-02-23T12:18:46;6.95;;;2.30;;
28762;SDS011;15918;51.270;6.522;2024-02-23T12:21:19;8.73;;;2.42;;
28762;SDS011;15918;51.270;6.522;2024-02-23T12:23:45;5.60;;;2.03;;
28762;SDS011;15918;51.270;6.522;2024-02-23T12:26:13;5.80;;;2.17;;
28762;SDS011;15918;51.270;6.522;2024-02-23T12:28:40;6.90;;;2.28;;
28762;SDS011;15918;51.270;6.522;2024-02-23T12:31:06;5.82;;;2.25;;
28762;SDS011;15918;51.270;6.522;2024-02-23T12:33:32;6.55;;;2.47;;
28762;SDS011;15918;51.270;6.522;2024-02-23T12:35:59;5.57;;;2.25;;
28762;SDS011;15918;51.270;6.522;2024-02-23T12:38:25;5.38;;;1.90;;
28762;SDS011;15918;51.270;6.522;2024-02-23T12:40:51;9.38;;;2.45;;
28762;SDS011;15918;51.270;6.522;2024-02-23T12:43:17;8.07;;;2.20;;
28762;SDS011;15918;51.270;6.522;2024-02-23T12:45:43;6.57;;;2.00;;
28762;SDS011;15918;51.270;6.522;2024-02-23T12:48:14;6.82;;;2.17;;
28762;SDS011;15918;51.270;6.522;2024-02-23T12:50:40;10.25;;;2.72;;
28762;SDS011;15918;51.270;6.522;2024-02-23T12:53:06;8.15;;;2.65;;
28762;SDS011;15918;51.270;6.522;2024-02-23T12:55:32;5.72;;;1.70;;
28762;SDS011;15918;51.270;6.522;2024-02-23T12:57:57;5.03;;;2.20;;
28762;SDS011;15918;51.270;6.522;2024-02-23T13:00:23;5.72;;;2.33;;
28762;SDS011;15918;51.270;6.522;2024-02-23T13:02:49;6.05;;;1.75;;
28762;SDS011;15918;51.270;6.522;2024-02-23T13:05:14;5.18;;;2.25;;
28762;SDS011;15918;51.270;6.522;2024-02-23T13:07:40;9.77;;;2.72;;
28762;SDS011;15918;51.270;6.522;2024-02-23T13:10:07;9.43;;;2.50;;
28762;SDS011;15918;51.270;6.522;2024-02-23T13:12:33;7.55;;;1.92;;
28762;SDS011;15918;51.270;6.522;2024-02-23T13:14:59;6.65;;;1.95;;
28762;SDS011;15918;51.270;6.522;2024-02-23T13:17:24;6.05;;;2.35;;
28762;SDS011;15918;51.270;6.522;2024-02-23T13:19:50;7.63;;;2.40;;
28762;SDS011;15918;51.270;6.522;2024-02-23T13:22:16;7.55;;;2.08;;
28762;SDS011;15918;51.270;6.522;2024-02-23T13:24:41;6.85;;;2.28;;
28762;SDS011;15918;51.270;6.522;2024-02-23T13:27:07;7.45;;;2.42;;
28762;SDS011;15918;51.270;6.522;2024-02-23T13:29:32;5.60;;;1.90;;
28762;SDS011;15918;51.270;6.522;2024-02-23T13:31:58;7.68;;;2.20;;
28762;SDS011;15918;51.270;6.522;2024-02-23T13:34:24;8.50;;;2.10;;
28762;SDS011;15918;51.270;6.522;2024-02-23T13:36:49;7.10;;;2.40;;
28762;SDS011;15918;51.270;6.522;2024-02-23T13:39:17;6.97;;;2.17;;
28762;SDS011;15918;51.270;6.522;2024-02-23T13:41:43;8.43;;;2.70;;
28762;SDS011;15918;51.270;6.522;2024-02-23T13:44:08;7.05;;;2.42;;
28762;SDS011;15918;51.270;6.522;2024-02-23T13:46:35;6.32;;;2.00;;
28762;SDS011;15918;51.270;6.522;2024-02-23T13:49:04;5.78;;;2.00;;
28762;SDS011;15918;51.270;6.522;2024-02-23T13:51:32;5.75;;;1.80;;
28762;SDS011;15918;51.270;6.522;2024-02-23T13:53:58;5.63;;;2.53;;
28762;SDS011;15918;51.270;6.522;2024-02-23T13:56:24;4.70;;;2.08;;
28762;SDS011;15918;51.270;6.522;2024-02-23T13:58:49;2.90;;;1.42;;
28762;SDS011;15918;51.270;6.522;2024-02-23T14:01:15;5.90;;;1.60;;
28762;SDS011;15918;51.270;6.522;2024-02-23T14:03:41;5.07;;;1.70;;
28762;SDS011;15918;51.270;6.522;2024-02-23T14:06:07;5.53;;;1.80;;
28762;SDS011;15918;51.270;6.522;2024-02-23T14:08:33;8.95;;;1.70;;
28762;SDS011;15918;51.270;6.522;2024-02-23T14:11:02;6.85;;;1.90;;
28762;SDS011;15918;51.270;6.522;2024-02-23T14:13:30;6.35;;;1.60;;
28762;SDS011;15918;51.270;6.522;2024-02-23T14:15:57;3.33;;;1.60;;
28762;SDS011;15918;51.270;6.522;2024-02-23T14:18:23;4.22;;;1.50;;
28762;SDS011;15918;51.270;6.522;2024-02-23T14:20:48;8.23;;;1.92;;
28762;SDS011;15918;51.270;6.522;2024-02-23T14:23:14;4.40;;;1.55;;
28762;SDS011;15918;51.270;6.522;2024-02-23T14:25:39;4.53;;;2.10;;
28762;SDS011;15918;51.270;6.522;2024-02-23T14:28:05;3.10;;;1.38;;
28762;SDS011;15918;51.270;6.522;2024-02-23T14:30:31;5.57;;;1.90;;
28762;SDS011;15918;51.270;6.522;2024-02-23T14:32:56;5.60;;;1.42;;
28762;SDS011;15918;51.270;6.522;2024-02-23T14:35:22;5.55;;;1.80;;
28762;SDS011;15918;51.270;6.522;2024-02-23T14:37:47;6.10;;;1.80;;
28762;SDS011;15918;51.270;6.522;2024-02-23T14:40:13;4.07;;;1.92;;
28762;SDS011;15918;51.270;6.522;2024-02-23T14:42:39;5.50;;;1.63;;
28762;SDS011;15918;51.270;6.522;2024-02-23T14:45:06;8.15;;;1.75;;